Terminal Aerodrome Forecast
Issued by NWS Rapid City, SD

Home | Current Version | Previous Version | Graphics & Text | Print | Product List | Glossary On
Versions: 1 2 3 4 5 6 7 8 9 10 11 12 13 14 15 16 17 18
000
FTUS43 KUNR 051120
TAFRAP
TAF
KRAP 051120Z 0512/0612 VRB05KT P6SM SCT100
     FM051800 03010KT P6SM SCT070 BKN150
     FM052000 35020G30KT P6SM VCTS SCT035CB BKN060
      TEMPO 0522/0602 TSRAGS BKN030CB
     FM060700 34016KT P6SM OVC050=

USA.gov is the U.S. government's official web portal to all federal, state and local government web resources and services.